Time;durP1;ratioP1;P1;durP2;ratioP2;P2;SDS_P1;SDS_P2;PMS_P1;PMS_P2;Temp;Humidity;BMP_temperature;BMP_pressure;BME280_temperature;BME280_humidity;BME280_pressure;Samples;Min_cycle;Max_cycle;Signal;HPM_P1;HPM_P2
2021/06/10 00:01:22;;;;;;;14.33;13.03;;;;;;;19.20;69.29;100824.28;5061395;28;20564;-79
2021/06/10 00:03:49;;;;;;;14.80;13.30;;;;;;;19.19;69.55;100828.84;5061767;28;21020;-78
2021/06/10 00:06:16;;;;;;;14.63;13.13;;;;;;;19.17;69.59;100825.47;5060798;28;20484;-78
2021/06/10 00:08:42;;;;;;;15.40;13.80;;;;;;;19.12;69.71;100824.34;5061987;28;20477;-81
2021/06/10 00:11:08;;;;;;;14.70;13.40;;;;;;;19.10;69.79;100826.41;5061669;28;20614;-80
2021/06/10 00:13:34;;;;;;;14.67;13.33;;;;;;;19.04;69.80;100822.53;5062559;28;20540;-81
2021/06/10 00:16:01;;;;;;;14.43;13.10;;;;;;;19.03;70.18;100825.44;5060738;28;20531;-79
2021/06/10 00:18:27;;;;;;;14.83;13.53;;;;;;;19.03;70.27;100815.44;5061724;28;20492;-80
2021/06/10 00:20:53;;;;;;;15.20;13.63;;;;;;;19.02;69.96;100818.31;5061740;28;20503;-81
2021/06/10 00:23:20;;;;;;;15.60;14.20;;;;;;;19.04;70.31;100814.41;5062101;28;20508;-81
2021/06/10 00:25:46;;;;;;;14.83;13.50;;;;;;;19.11;69.41;100814.50;5060311;28;20546;-82
2021/06/10 00:28:13;;;;;;;16.63;14.87;;;;;;;19.04;69.67;100813.56;5061970;28;20461;-79
2021/06/10 00:30:39;;;;;;;16.23;14.83;;;;;;;19.02;69.38;100812.91;5061276;28;20504;-80
2021/06/10 00:33:06;;;;;;;14.23;12.97;;;;;;;19.10;69.43;100819.09;5061675;28;20438;-80
2021/06/10 00:35:32;;;;;;;13.50;12.20;;;;;;;18.99;69.55;100816.81;5061454;28;20469;-78
2021/06/10 00:38:00;;;;;;;15.37;13.70;;;;;;;19.00;69.38;100821.22;5061369;28;20457;-77
2021/06/10 00:40:30;;;;;;;15.63;14.17;;;;;;;19.02;69.36;100815.63;5061334;28;20511;-78
2021/06/10 00:42:58;;;;;;;15.90;14.40;;;;;;;18.88;69.78;100826.22;5061617;28;20465;-79
2021/06/10 00:45:24;;;;;;;15.87;13.73;;;;;;;18.90;69.17;100826.88;5060681;28;20448;-77
2021/06/10 00:47:51;;;;;;;13.90;12.50;;;;;;;18.91;69.23;100820.44;5061098;28;20452;-79
2021/06/10 00:50:20;;;;;;;16.17;13.60;;;;;;;18.82;69.63;100818.81;5061217;28;20512;-78
2021/06/10 00:52:47;;;;;;;15.10;13.70;;;;;;;18.69;69.96;100821.25;5061811;28;20946;-80
2021/06/10 00:55:13;;;;;;;15.17;13.67;;;;;;;18.63;70.46;100823.66;5059884;28;20449;-79
2021/06/10 00:57:41;;;;;;;16.83;15.03;;;;;;;18.58;70.72;100823.34;5061326;28;20790;-78
2021/06/10 01:00:10;;;;;;;15.87;14.27;;;;;;;18.67;70.44;100823.31;5047491;28;20438;-80
2021/06/10 01:02:36;;;;;;;15.20;13.80;;;;;;;18.62;70.67;100831.94;5061043;28;20461;-78
2021/06/10 01:05:03;;;;;;;15.27;13.87;;;;;;;18.74;70.02;100816.97;5061570;28;20509;-79
2021/06/10 01:07:35;;;;;;;15.70;14.03;;;;;;;18.67;69.86;100821.44;5060315;28;20487;-79
2021/06/10 01:10:04;;;;;;;15.80;14.33;;;;;;;18.64;70.11;100816.34;5061404;28;20944;-79
2021/06/10 01:12:36;;;;;;;16.23;14.53;;;;;;;18.56;70.19;100811.03;5061201;28;20456;-80
2021/06/10 01:15:07;;;;;;;15.60;14.20;;;;;;;18.46;70.66;100813.94;5061213;28;20441;-80
2021/06/10 01:17:34;;;;;;;15.63;14.13;;;;;;;18.52;70.34;100820.50;5060835;28;20481;-79
2021/06/10 01:20:08;;;;;;;16.30;14.80;;;;;;;18.56;69.91;100814.56;5061888;28;20538;-79
2021/06/10 01:22:40;;;;;;;15.87;14.47;;;;;;;18.48;70.05;100827.31;5061158;28;20464;-80
2021/06/10 01:25:14;;;;;;;17.17;15.67;;;;;;;18.44;70.03;100822.25;5060321;28;20823;-81
2021/06/10 01:27:43;;;;;;;17.40;15.80;;;;;;;18.32;70.68;100820.97;5061269;28;20471;-80
2021/06/10 01:30:12;;;;;;;17.20;15.70;;;;;;;18.45;70.01;100817.66;5060171;28;20490;-80
2021/06/10 01:32:42;;;;;;;18.03;16.30;;;;;;;18.34;70.13;100818.91;5060773;28;20545;-81
2021/06/10 01:35:09;;;;;;;17.30;15.60;;;;;;;18.29;70.23;100823.19;5060607;28;20438;-80
2021/06/10 01:37:36;;;;;;;17.13;15.53;;;;;;;18.28;70.01;100818.78;5060102;28;20561;-81
2021/06/10 01:40:04;;;;;;;18.27;16.17;;;;;;;18.27;69.97;100817.94;5061032;28;20468;-80
2021/06/10 01:42:31;;;;;;;18.70;17.00;;;;;;;18.23;70.29;100813.91;5060592;28;20504;-79
2021/06/10 01:44:59;;;;;;;17.70;16.10;;;;;;;18.24;69.81;100812.88;5061645;28;20541;-81
2021/06/10 01:47:26;;;;;;;17.77;16.07;;;;;;;18.22;69.71;100809.50;5079414;28;20480;-79
2021/06/10 01:49:53;;;;;;;18.53;16.80;;;;;;;18.15;70.25;100800.41;5081100;28;20460;-81
2021/06/10 01:52:20;;;;;;;21.17;17.07;;;;;;;18.12;70.14;100800.75;5080523;28;20491;-80
2021/06/10 01:54:46;;;;;;;19.00;17.03;;;;;;;18.06;70.10;100797.75;5080119;28;20781;-80
2021/06/10 01:57:14;;;;;;;18.50;16.80;;;;;;;18.09;70.13;100798.41;5080674;28;20499;-82
2021/06/10 01:59:41;;;;;;;19.10;17.10;;;;;;;18.21;69.78;100797.00;5081056;28;20443;-79
2021/06/10 02:02:09;;;;;;;18.33;16.53;;;;;;;18.18;69.77;100794.66;5080015;28;20476;-76
2021/06/10 02:04:36;;;;;;;17.87;16.17;;;;;;;18.25;69.49;100792.91;5060549;28;20485;-81
2021/06/10 02:07:02;;;;;;;19.70;17.90;;;;;;;18.18;69.43;100787.38;5060415;28;20479;-82
2021/06/10 02:09:29;;;;;;;20.20;18.20;;;;;;;18.16;69.23;100789.41;5080028;28;20472;-81
2021/06/10 02:11:56;;;;;;;19.53;17.53;;;;;;;18.09;69.75;100784.88;5080434;28;20490;-79
2021/06/10 02:14:23;;;;;;;20.27;18.27;;;;;;;18.13;69.38;100778.94;5081094;28;20464;-81
2021/06/10 02:16:50;;;;;;;18.80;16.90;;;;;;;18.18;69.31;100776.53;5083423;28;20551;-81
2021/06/10 02:19:18;;;;;;;20.70;18.70;;;;;;;18.09;69.12;100776.75;5084522;28;20444;-80
2021/06/10 02:21:44;;;;;;;19.93;17.90;;;;;;;17.80;70.12;100778.22;5083354;28;20541;-76
2021/06/10 02:24:11;;;;;;;20.03;17.93;;;;;;;17.77;70.30;100787.50;5084093;28;20513;-77
2021/06/10 02:26:38;;;;;;;21.00;18.87;;;;;;;17.67;70.86;100790.44;5083187;28;20868;-81
2021/06/10 02:29:05;;;;;;;20.23;18.33;;;;;;;17.64;71.08;100790.78;5084626;28;20554;-78
2021/06/10 02:31:31;;;;;;;21.10;19.10;;;;;;;17.59;71.42;100785.03;5082916;28;20480;-81
2021/06/10 02:33:57;;;;;;;21.23;18.87;;;;;;;17.71;70.84;100790.94;5084423;28;20560;-81
2021/06/10 02:36:25;;;;;;;19.97;17.83;;;;;;;17.86;70.69;100780.25;5083545;28;20536;-79
2021/06/10 02:38:54;;;;;;;21.90;19.70;;;;;;;17.84;70.25;100776.84;5083251;28;20449;-80
2021/06/10 02:41:22;;;;;;;19.40;17.53;;;;;;;17.75;70.50;100788.72;5083135;28;20611;-80
2021/06/10 02:43:50;;;;;;;21.63;19.50;;;;;;;17.67;70.61;100785.03;5084158;28;20472;-79
2021/06/10 02:46:17;;;;;;;19.37;17.57;;;;;;;17.70;71.00;100773.00;5082863;28;20883;-81
2021/06/10 02:48:44;;;;;;;19.37;17.57;;;;;;;17.67;70.10;100774.22;5083853;28;20463;-80
2021/06/10 02:51:11;;;;;;;20.50;18.60;;;;;;;17.64;70.38;100784.53;5082770;28;21004;-81
2021/06/10 02:53:40;;;;;;;19.20;17.20;;;;;;;17.61;71.16;100782.16;5083780;28;20468;-80
2021/06/10 02:56:08;;;;;;;19.93;18.03;;;;;;;17.66;70.80;100777.09;5082427;28;21024;-81
2021/06/10 02:58:36;;;;;;;18.70;16.90;;;;;;;17.59;70.64;100784.22;5083867;28;20448;-81
2021/06/10 03:01:04;;;;;;;20.00;18.20;;;;;;;17.64;70.48;100784.53;5082344;28;20510;-79
2021/06/10 03:03:32;;;;;;;19.97;18.07;;;;;;;17.57;71.12;100783.50;5083177;28;20545;-78
2021/06/10 03:05:59;;;;;;;19.23;17.10;;;;;;;17.45;70.90;100783.06;5083071;28;20496;-79
2021/06/10 03:08:25;;;;;;;19.57;17.77;;;;;;;17.42;71.25;100781.53;5083211;28;20464;-80
2021/06/10 03:10:55;;;;;;;22.83;18.07;;;;;;;17.57;71.11;100778.09;5082734;28;20500;-80
2021/06/10 03:13:22;;;;;;;18.93;17.10;;;;;;;17.51;70.66;100779.66;5083942;28;20456;-79
2021/06/10 03:15:48;;;;;;;18.83;16.83;;;;;;;17.44;71.22;100781.38;5081851;28;21031;-80
2021/06/10 03:18:15;;;;;;;19.73;17.80;;;;;;;17.58;71.04;100780.66;5083278;28;20469;-80
2021/06/10 03:20:41;;;;;;;19.87;17.97;;;;;;;17.61;70.53;100782.16;5082350;28;20502;-81
2021/06/10 03:23:08;;;;;;;18.97;16.93;;;;;;;17.59;69.50;100782.34;5083625;28;20502;-82
2021/06/10 03:25:34;;;;;;;18.97;17.20;;;;;;;17.63;70.28;100786.38;5081643;28;20468;-81
2021/06/10 03:28:02;;;;;;;20.00;18.00;;;;;;;17.87;69.64;100780.06;5082374;28;20483;-81
2021/06/10 03:30:28;;;;;;;18.50;16.70;;;;;;;17.86;69.41;100778.41;5082533;28;20484;-81
2021/06/10 03:32:54;;;;;;;18.00;16.10;;;;;;;17.90;69.61;100783.44;5082771;28;20429;-81
2021/06/10 03:35:21;;;;;;;19.13;16.27;;;;;;;18.05;68.76;100779.84;5082116;28;20492;-79
2021/06/10 03:37:48;;;;;;;20.13;18.03;;;;;;;18.20;68.39;100776.38;5082222;28;20524;-78
2021/06/10 03:40:14;;;;;;;17.70;16.00;;;;;;;18.40;67.20;100777.59;5082079;28;20452;-78
2021/06/10 03:42:41;;;;;;;18.90;16.90;;;;;;;18.58;67.13;100773.78;5082794;28;20459;-80
2021/06/10 03:45:10;;;;;;;20.60;16.10;;;;;;;19.15;65.25;100775.19;5082305;28;20841;-80
2021/06/10 03:47:37;;;;;;;16.67;14.93;;;;;;;19.22;64.93;100772.56;5081886;28;20483;-81
2021/06/10 03:50:07;;;;;;;17.33;15.50;;;;;;;19.25;64.75;100770.34;5083667;28;20488;-79
2021/06/10 03:52:33;;;;;;;16.90;15.10;;;;;;;19.35;64.15;100772.78;5086161;28;20479;-81
2021/06/10 03:55:04;;;;;;;16.20;14.63;;;;;;;19.66;63.31;100769.88;5085895;28;20527;-81
2021/06/10 03:57:30;;;;;;;17.03;15.30;;;;;;;19.85;62.77;100765.78;5085989;28;20468;-80
2021/06/10 03:59:56;;;;;;;14.97;13.57;;;;;;;19.92;62.48;100766.72;5085754;28;20558;-79
2021/06/10 04:02:24;;;;;;;16.63;14.93;;;;;;;20.04;62.31;100767.06;5085393;28;20504;-79
2021/06/10 04:04:50;;;;;;;17.27;15.70;;;;;;;19.89;62.45;100774.38;5085857;28;21012;-81
2021/06/10 04:07:16;;;;;;;16.00;14.50;;;;;;;19.64;63.51;100768.41;5085545;28;20495;-81
2021/06/10 04:09:42;;;;;;;16.60;15.00;;;;;;;19.26;65.09;100768.47;5086424;28;20441;-80
2021/06/10 04:12:09;;;;;;;17.63;16.03;;;;;;;19.08;65.68;100772.38;5085266;28;20519;-81
2021/06/10 04:14:35;;;;;;;17.33;15.60;;;;;;;19.07;66.02;100770.66;5085355;28;20507;-80
2021/06/10 04:17:02;;;;;;;18.33;16.73;;;;;;;19.37;64.88;100768.88;5083834;28;20559;-80
2021/06/10 04:19:29;;;;;;;18.97;16.97;;;;;;;19.62;64.39;100779.44;5084645;28;20483;-81
2021/06/10 04:21:55;;;;;;;18.20;16.50;;;;;;;19.96;63.23;100769.06;5083833;28;20511;-81
2021/06/10 04:24:22;;;;;;;17.33;15.63;;;;;;;20.21;62.63;100764.16;5080981;28;20563;-81
2021/06/10 04:26:48;;;;;;;17.43;15.60;;;;;;;20.79;60.69;100773.13;5082118;28;20468;-81
2021/06/10 04:29:14;;;;;;;16.43;14.73;;;;;;;21.29;59.23;100764.94;5083235;28;20437;-79
2021/06/10 04:31:40;;;;;;;15.07;13.57;;;;;;;21.29;59.17;100764.13;5082365;28;20503;-78
2021/06/10 04:34:07;;;;;;;15.53;13.93;;;;;;;21.55;58.13;100766.19;5083087;28;20471;-79
2021/06/10 04:36:34;;;;;;;14.20;13.00;;;;;;;22.07;56.89;100767.50;5081321;28;20476;-78
2021/06/10 04:39:00;;;;;;;16.07;14.50;;;;;;;22.66;55.03;100770.63;5087891;28;20456;-77
2021/06/10 04:41:26;;;;;;;16.37;13.80;;;;;;;23.28;52.85;100768.56;5084014;28;21066;-75
2021/06/10 04:43:53;;;;;;;15.33;13.87;;;;;;;23.73;51.28;100774.13;5081238;28;20509;-75
2021/06/10 04:46:19;;;;;;;13.60;12.40;;;;;;;24.19;50.31;100775.00;5079484;28;20803;-76
2021/06/10 04:48:45;;;;;;;14.90;13.60;;;;;;;24.96;48.26;100780.41;5080033;28;20475;-76
2021/06/10 04:51:11;;;;;;;12.83;11.60;;;;;;;25.32;47.52;100787.91;5079397;28;20488;-75
2021/06/10 04:53:41;;;;;;;12.63;11.33;;;;;;;25.66;46.73;100793.91;5080650;28;20432;-75
2021/06/10 04:56:07;;;;;;;12.83;11.73;;;;;;;25.78;46.31;100785.75;5077660;28;20501;-76
2021/06/10 04:58:33;;;;;;;12.97;11.80;;;;;;;26.22;44.71;100786.50;5080919;28;20506;-76
2021/06/10 05:00:59;;;;;;;13.23;11.07;;;;;;;26.00;45.20;100788.88;5081548;28;20506;-76
2021/06/10 05:03:25;;;;;;;12.70;11.50;;;;;;;26.15;44.76;100795.91;5082273;28;20432;-76
2021/06/10 05:05:51;;;;;;;13.23;11.93;;;;;;;26.80;43.80;100790.53;5079775;28;20476;-76
2021/06/10 05:08:18;;;;;;;15.40;12.63;;;;;;;27.10;42.86;100780.56;5082346;28;20448;-76
2021/06/10 05:10:45;;;;;;;13.27;12.17;;;;;;;27.08;43.34;100785.44;5081024;28;20543;-76
2021/06/10 05:13:11;;;;;;;15.40;13.70;;;;;;;27.42;42.66;100789.31;5082161;28;20429;-76
2021/06/10 05:15:37;;;;;;;17.87;16.07;;;;;;;27.36;42.40;100793.00;5081596;28;20464;-75
2021/06/10 05:18:04;;;;;;;17.33;15.63;;;;;;;27.85;41.34;100790.00;5081464;28;20455;-76
2021/06/10 05:20:30;;;;;;;18.87;17.20;;;;;;;28.06;41.17;100786.59;5080324;28;20468;-76
2021/06/10 05:22:56;;;;;;;17.80;16.20;;;;;;;28.75;39.78;100796.75;5080686;28;20452;-76
2021/06/10 05:25:23;;;;;;;17.20;15.50;;;;;;;29.28;39.26;100797.34;5079399;28;20510;-76
2021/06/10 05:27:50;;;;;;;18.70;16.90;;;;;;;29.84;37.65;100794.56;5080382;28;20459;-74
2021/06/10 05:30:18;;;;;;;25.70;15.80;;;;;;;29.85;37.72;100796.25;5077962;28;20476;-75
2021/06/10 05:32:44;;;;;;;17.13;15.53;;;;;;;30.17;37.18;100801.03;5070457;28;20819;-75
2021/06/10 05:35:11;;;;;;;19.40;17.53;;;;;;;28.97;39.69;100799.56;5073699;28;20457;-77
2021/06/10 05:37:37;;;;;;;18.23;16.50;;;;;;;29.20;39.53;100795.88;5073711;28;20460;-77
2021/06/10 05:40:05;;;;;;;20.60;18.70;;;;;;;29.31;38.61;100802.34;5082484;28;20459;-76
2021/06/10 05:42:32;;;;;;;20.43;18.53;;;;;;;29.70;38.37;100796.00;5082256;28;20658;-76
2021/06/10 05:44:59;;;;;;;21.57;19.53;;;;;;;29.62;38.25;100808.31;5081304;28;20472;-76
2021/06/10 05:47:25;;;;;;;20.97;18.90;;;;;;;30.03;37.12;100804.22;5081446;28;20503;-77
2021/06/10 05:49:51;;;;;;;20.93;19.00;;;;;;;29.81;37.76;100806.97;5084101;28;20458;-80
2021/06/10 05:52:18;;;;;;;20.93;18.83;;;;;;;29.05;39.24;100804.66;5086515;28;20496;-81
2021/06/10 05:54:44;;;;;;;23.60;21.47;;;;;;;26.96;43.52;100797.28;5087106;28;20484;-81
2021/06/10 05:57:11;;;;;;;24.43;21.63;;;;;;;27.84;42.53;100799.31;5086594;28;20500;-80
2021/06/10 05:59:38;;;;;;;24.03;21.60;;;;;;;28.61;39.77;100789.88;5086503;28;20456;-80
2021/06/10 06:02:05;;;;;;;25.57;23.20;;;;;;;26.53;43.74;100798.31;5067338;28;20477;-80
2021/06/10 06:04:31;;;;;;;26.30;23.90;;;;;;;26.25;44.80;100807.97;5068130;28;20565;-80
2021/06/10 06:06:57;;;;;;;26.27;23.93;;;;;;;26.99;42.81;100809.66;5066342;28;20876;-79
2021/06/10 06:09:24;;;;;;;27.27;24.60;;;;;;;26.72;43.36;100806.50;5068792;28;20452;-80
2021/06/10 06:11:51;;;;;;;28.07;24.23;;;;;;;26.80;44.30;100812.47;5067249;28;20484;-80
2021/06/10 06:14:24;;;;;;;29.20;26.30;;;;;;;26.60;43.82;100812.75;5072010;28;20483;-80
2021/06/10 06:16:50;;;;;;;27.87;25.17;;;;;;;27.61;41.29;100810.06;5076875;28;20504;-80
2021/06/10 06:19:18;;;;;;;26.97;24.43;;;;;;;27.85;41.27;100814.72;5086565;28;20917;-78
2021/06/10 06:21:44;;;;;;;25.63;23.03;;;;;;;28.11;40.52;100814.19;5086551;28;20487;-80
2021/06/10 06:24:11;;;;;;;29.17;24.40;;;;;;;29.20;39.13;100815.13;5086589;28;20476;-79
2021/06/10 06:26:37;;;;;;;25.07;22.67;;;;;;;31.55;34.29;100820.03;5086508;28;20792;-80
2021/06/10 06:29:04;;;;;;;23.97;21.63;;;;;;;32.74;32.17;100822.16;5085885;28;20830;-79
2021/06/10 06:31:30;;;;;;;26.10;23.60;;;;;;;31.33;33.97;100827.31;5086338;28;20494;-80
2021/06/10 06:33:57;;;;;;;23.07;20.97;;;;;;;33.05;31.36;100822.19;5087783;28;20448;-79
2021/06/10 06:36:24;;;;;;;21.67;19.67;;;;;;;33.77;30.69;100829.34;5076753;28;20560;-77
2021/06/10 06:38:50;;;;;;;22.70;20.77;;;;;;;35.06;28.17;100823.06;5085964;28;20467;-80
2021/06/10 06:41:18;;;;;;;23.17;21.07;;;;;;;34.21;28.26;100826.97;5086907;28;20476;-80
2021/06/10 06:43:45;;;;;;;22.23;20.13;;;;;;;33.05;29.95;100825.78;5087145;28;20845;-81
2021/06/10 06:46:11;;;;;;;20.60;18.60;;;;;;;33.53;29.57;100833.81;5085648;28;20479;-80
2021/06/10 06:48:37;;;;;;;20.17;18.10;;;;;;;34.63;28.71;100843.09;5087185;28;20466;-80
2021/06/10 06:51:04;;;;;;;20.60;18.80;;;;;;;35.39;27.07;100831.69;5085647;28;20512;-80
2021/06/10 06:53:32;;;;;;;20.30;18.33;;;;;;;34.42;27.73;100841.56;5085626;28;20459;-79
2021/06/10 06:55:58;;;;;;;18.87;17.17;;;;;;;34.39;27.40;100845.75;5085670;28;20495;-79
2021/06/10 06:58:25;;;;;;;17.30;15.80;;;;;;;35.25;26.11;100846.28;5067547;28;20807;-78
2021/06/10 07:00:52;;;;;;;18.97;17.07;;;;;;;34.44;26.43;100845.69;5084208;28;20480;-80
2021/06/10 07:03:18;;;;;;;20.00;18.20;;;;;;;33.81;27.54;100837.91;5081972;28;20509;-80
2021/06/10 07:05:44;;;;;;;18.10;16.23;;;;;;;34.56;26.69;100836.22;5066251;28;20480;-80
2021/06/10 07:08:10;;;;;;;19.27;17.47;;;;;;;33.09;28.19;100834.38;5065511;28;20901;-80
2021/06/10 07:10:38;;;;;;;20.80;19.00;;;;;;;34.38;27.49;100843.25;5065005;28;20473;-77
2021/06/10 07:13:04;;;;;;;16.70;15.23;;;;;;;35.14;25.27;100843.84;5066637;28;20521;-79
2021/06/10 07:15:30;;;;;;;17.07;15.47;;;;;;;35.17;25.11;100852.44;5081746;28;20539;-80
2021/06/10 07:17:56;;;;;;;17.63;15.70;;;;;;;34.70;26.33;100856.66;5069894;28;20460;-79
2021/06/10 07:20:23;;;;;;;18.03;16.40;;;;;;;34.72;26.14;100854.44;5084962;28;20454;-80
2021/06/10 07:22:49;;;;;;;18.43;16.93;;;;;;;35.39;24.96;100856.72;5084825;28;21015;-80
2021/06/10 07:25:16;;;;;;;17.23;15.47;;;;;;;33.17;27.29;100850.47;5084901;28;20518;-79
2021/06/10 07:27:43;;;;;;;15.93;14.23;;;;;;;34.01;26.67;100861.16;5083193;28;20441;-79
2021/06/10 07:30:11;;;;;;;16.73;15.23;;;;;;;34.13;26.26;100859.72;5073148;28;20457;-79
2021/06/10 07:32:37;;;;;;;16.90;15.30;;;;;;;32.07;28.84;100861.53;5081914;28;20511;-79
2021/06/10 07:35:04;;;;;;;16.70;15.10;;;;;;;32.76;27.65;100864.25;5066466;28;20425;-80
2021/06/10 07:37:30;;;;;;;18.73;15.90;;;;;;;34.41;26.52;100867.66;5063476;28;20717;-81
2021/06/10 07:39:57;;;;;;;15.00;13.60;;;;;;;36.23;23.73;100864.72;5067306;28;20484;-79
2021/06/10 07:42:23;;;;;;;15.10;13.77;;;;;;;36.67;22.77;100873.88;5085587;28;20468;-80
2021/06/10 07:44:51;;;;;;;14.57;12.87;;;;;;;34.39;25.47;100870.75;5086667;28;20503;-80
2021/06/10 07:47:17;;;;;;;13.60;12.40;;;;;;;35.11;24.02;100875.00;5085108;28;20997;-78
2021/06/10 07:49:43;;;;;;;12.23;11.10;;;;;;;35.72;22.52;100876.44;5085176;28;20460;-80
2021/06/10 07:52:09;;;;;;;11.90;10.80;;;;;;;34.84;23.19;100870.75;5083260;28;20472;-79
2021/06/10 07:54:36;;;;;;;13.37;12.10;;;;;;;33.77;23.89;100870.94;5065157;28;20768;-80
2021/06/10 07:57:03;;;;;;;13.03;11.93;;;;;;;33.60;24.67;100875.94;5080922;28;20477;-79
2021/06/10 07:59:32;;;;;;;13.87;12.63;;;;;;;33.38;25.75;100876.22;5079726;28;20537;-79
2021/06/10 08:01:59;;;;;;;15.33;13.27;;;;;;;32.92;26.56;100882.56;5084557;28;20562;-78
2021/06/10 08:04:25;;;;;;;12.90;11.67;;;;;;;31.73;27.37;100869.34;5086232;28;20500;-79
2021/06/10 08:06:52;;;;;;;15.57;14.20;;;;;;;32.82;26.69;100872.31;5064522;28;20481;-79
2021/06/10 08:09:18;;;;;;;12.10;11.10;;;;;;;32.26;26.58;100870.19;5085161;28;20448;-76
2021/06/10 08:11:45;;;;;;;12.83;11.73;;;;;;;32.32;27.26;100876.56;5083262;28;20539;-79
2021/06/10 08:14:11;;;;;;;12.60;11.50;;;;;;;33.83;24.88;100870.91;5081434;28;20439;-79
2021/06/10 08:16:38;;;;;;;14.20;12.80;;;;;;;34.40;24.53;100868.78;5086234;28;20493;-80
2021/06/10 08:19:05;;;;;;;12.20;11.10;;;;;;;34.26;24.18;100879.69;5065489;28;20526;-80
2021/06/10 08:21:31;;;;;;;11.50;10.13;;;;;;;32.32;26.00;100868.25;5063813;28;20484;-78
2021/06/10 08:23:58;;;;;;;10.33;9.43;;;;;;;32.22;26.40;100877.38;5075889;28;20456;-78
2021/06/10 08:26:24;;;;;;;10.63;9.47;;;;;;;31.60;27.74;100864.28;5083352;28;20533;-80
2021/06/10 08:28:50;;;;;;;9.57;8.67;;;;;;;32.54;25.25;100868.06;5085184;28;20456;-79
2021/06/10 08:31:17;;;;;;;10.30;7.67;;;;;;;33.87;25.15;100872.84;5083019;28;20487;-79
2021/06/10 08:33:43;;;;;;;10.17;8.33;;;;;;;34.08;24.43;100870.00;5084699;28;20432;-80
2021/06/10 08:36:11;;;;;;;10.73;9.73;;;;;;;33.39;25.89;100866.81;5084950;28;20456;-80
2021/06/10 08:38:37;;;;;;;9.97;9.07;;;;;;;33.11;25.35;100869.00;5065261;28;20457;-80
2021/06/10 08:41:04;;;;;;;10.47;9.37;;;;;;;32.44;24.41;100865.28;5064252;28;20469;-80
2021/06/10 08:43:30;;;;;;;8.30;7.40;;;;;;;32.53;25.81;100866.38;5064787;28;20437;-80
2021/06/10 08:46:01;;;;;;;8.23;7.43;;;;;;;33.46;24.67;100874.84;5092334;28;20470;-79
2021/06/10 08:48:31;;;;;;;8.10;7.30;;;;;;;34.91;22.44;100879.59;5091886;28;20482;-78
2021/06/10 08:50:58;;;;;;;7.97;7.17;;;;;;;34.80;22.88;100869.69;5064911;28;20469;-80
2021/06/10 08:53:26;;;;;;;8.57;7.83;;;;;;;35.56;21.81;100881.31;5064454;28;20429;-80
2021/06/10 08:55:55;;;;;;;7.97;7.17;;;;;;;34.30;23.86;100875.22;5064214;28;20750;-80
2021/06/10 08:58:21;;;;;;;8.83;7.63;;;;;;;33.96;24.32;100882.25;5080318;28;20460;-79
2021/06/10 09:00:47;;;;;;;9.90;9.00;;;;;;;34.66;23.31;100883.34;5073270;28;20473;-78
2021/06/10 09:03:21;;;;;;;11.17;10.17;;;;;;;31.41;27.89;100881.25;5064516;28;20468;-79
2021/06/10 09:06:00;;;;;;;11.17;10.17;;;;;;;31.03;28.99;100885.91;5064248;28;20473;-79
2021/06/10 09:08:28;;;;;;;12.20;11.20;;;;;;;31.31;28.85;100883.94;5064275;28;20472;-80
2021/06/10 09:11:03;;;;;;;11.37;9.33;;;;;;;32.32;26.95;100882.09;5071995;28;20483;-79
2021/06/10 09:13:37;;;;;;;11.13;9.73;;;;;;;32.46;26.78;100874.97;5084153;28;20475;-80
2021/06/10 09:16:16;;;;;;;9.23;8.43;;;;;;;32.42;26.69;100875.78;5082817;28;20472;-79
2021/06/10 09:18:52;;;;;;;8.77;7.87;;;;;;;33.75;26.20;100877.88;5083248;28;20456;-79
2021/06/10 09:21:29;;;;;;;8.97;8.07;;;;;;;34.26;23.46;100879.69;5063293;28;20514;-80
2021/06/10 09:24:15;;;;;;;7.30;6.60;;;;;;;33.93;24.21;100873.66;5065596;28;20475;-78
2021/06/10 09:26:41;;;;;;;7.50;6.70;;;;;;;34.74;24.17;100881.94;5068932;28;20465;-80
2021/06/10 09:29:07;;;;;;;7.70;7.00;;;;;;;35.28;22.57;100880.16;5067214;28;20527;-80
2021/06/10 09:31:34;;;;;;;7.10;6.07;;;;;;;35.34;22.05;100887.34;5080450;28;20521;-80
2021/06/10 09:34:07;;;;;;;7.10;6.50;;;;;;;34.19;23.85;100873.59;5073638;28;20440;-79
2021/06/10 09:36:40;;;;;;;9.20;5.27;;;;;;;33.67;23.65;100881.22;5087132;28;20475;-80
2021/06/10 09:39:09;;;;;;;7.93;6.70;;;;;;;32.64;24.84;100886.69;5086760;28;20459;-79
2021/06/10 09:41:36;;;;;;;8.27;6.30;;;;;;;33.28;24.64;100887.31;5087534;28;20529;-80
2021/06/10 09:44:02;;;;;;;6.73;6.03;;;;;;;34.40;22.97;100877.94;5081845;28;20488;-80
2021/06/10 09:46:28;;;;;;;7.83;6.83;;;;;;;32.88;24.94;100887.00;5065728;28;20480;-79
2021/06/10 09:49:05;;;;;;;6.53;5.87;;;;;;;32.28;26.13;100881.00;5074767;28;20488;-80
2021/06/10 09:51:31;;;;;;;7.60;6.77;;;;;;;32.35;27.05;100880.75;5086048;28;20475;-78
2021/06/10 09:53:59;;;;;;;6.50;5.57;;;;;;;33.21;25.11;100888.44;5086497;28;20519;-79
2021/06/10 09:56:26;;;;;;;9.43;5.40;;;;;;;33.80;23.91;100890.91;5085999;28;20476;-80
2021/06/10 09:58:55;;;;;;;6.53;5.70;;;;;;;32.19;25.97;100888.16;5079537;28;20457;-78
2021/06/10 10:01:23;;;;;;;7.30;6.67;;;;;;;30.36;27.08;100879.66;5066596;28;20482;-81
2021/06/10 10:03:50;;;;;;;6.73;6.10;;;;;;;31.71;28.00;100888.94;5067834;28;20433;-76
2021/06/10 10:06:22;;;;;;;9.03;6.70;;;;;;;31.57;26.60;100898.00;5087174;28;20472;-79
2021/06/10 10:08:51;;;;;;;8.20;6.17;;;;;;;32.24;26.39;100890.94;5080299;28;20464;-80
2021/06/10 10:11:18;;;;;;;5.90;5.40;;;;;;;32.28;25.40;100887.34;5077444;28;20470;-80
2021/06/10 10:13:48;;;;;;;5.77;5.17;;;;;;;31.70;24.91;100890.06;5087792;28;20455;-79
2021/06/10 10:16:19;;;;;;;7.60;6.07;;;;;;;30.38;27.98;100880.22;5086362;28;20901;-79
2021/06/10 10:18:45;;;;;;;5.33;4.83;;;;;;;31.45;26.47;100879.63;5067722;28;20453;-79
2021/06/10 10:21:12;;;;;;;5.60;5.07;;;;;;;32.67;24.95;100880.56;5066419;28;20544;-79
2021/06/10 10:23:38;;;;;;;5.70;5.20;;;;;;;31.43;26.12;100881.81;5076145;28;20436;-80
2021/06/10 10:26:06;;;;;;;5.50;5.00;;;;;;;31.34;27.60;100886.19;5086268;28;20498;-80
2021/06/10 10:28:34;;;;;;;6.40;5.10;;;;;;;30.07;27.26;100878.97;5068157;28;20458;-78
2021/06/10 10:31:03;;;;;;;10.50;4.10;;;;;;;30.40;28.66;100879.97;5085020;28;20534;-80
2021/06/10 10:33:30;;;;;;;7.50;5.43;;;;;;;30.12;28.20;100867.16;5093824;28;20465;-79
2021/06/10 10:35:57;;;;;;;5.73;4.70;;;;;;;30.20;29.46;100881.34;5065634;28;20473;-80
2021/06/10 10:38:32;;;;;;;5.83;4.17;;;;;;;29.93;29.22;100870.25;5084247;28;20499;-80
2021/06/10 10:41:00;;;;;;;4.70;4.23;;;;;;;29.94;28.70;100863.63;5086276;28;20482;-81
2021/06/10 10:43:27;;;;;;;6.90;5.10;;;;;;;29.51;30.00;100867.94;5087237;28;20543;-78
2021/06/10 10:46:18;;;;;;;6.03;5.37;;;;;;;30.22;29.89;100864.53;5084254;28;20476;-80
2021/06/10 10:48:45;;;;;;;6.53;4.67;;;;;;;30.32;27.95;100867.41;5070840;28;20491;-80
2021/06/10 10:51:26;;;;;;;5.33;4.83;;;;;;;29.82;29.39;100869.25;5066025;28;20481;-79
2021/06/10 10:53:58;;;;;;;4.03;3.60;;;;;;;30.71;28.33;100881.16;5074102;28;20499;-80
2021/06/10 10:56:38;;;;;;;4.93;4.50;;;;;;;30.99;27.38;100868.22;5081887;28;20563;-81
2021/06/10 10:59:12;;;;;;;7.47;4.43;;;;;;;31.17;27.00;100853.16;5080129;28;20439;-80
2021/06/10 11:01:40;;;;;;;6.43;3.87;;;;;;;31.55;27.20;100855.97;5081357;28;20494;-80
2021/06/10 11:04:06;;;;;;;4.50;4.10;;;;;;;31.75;26.73;100855.25;5078654;28;20440;-78
2021/06/10 11:06:36;;;;;;;5.50;4.13;;;;;;;30.64;27.90;100852.94;5077113;28;20506;-79
2021/06/10 11:09:13;;;;;;;4.80;4.30;;;;;;;30.65;28.32;100854.59;5097985;28;20490;-80
2021/06/10 11:11:56;;;;;;;3.97;3.57;;;;;;;31.73;28.88;100852.75;5088553;28;20555;-80
2021/06/10 11:14:43;;;;;;;4.03;3.73;;;;;;;31.25;28.44;100846.31;5098518;28;20471;-79